Lulu Pass Weather Station

This weather station provides temperature, relative humidity (RH), wind speed, gust or max wind speed, and wind direction at 10020ft near Lulu Pass at the head of Fisher Creek. This data can be used with temperature and precipitation data from the Fisher Creek SNOTEL site.

This weather station was purchased by the Friends of the Avalanche Center.

If the data has not been updated recently you can view it directly on datagarrison.com

Elevation
10020ft
Jump to table bottom
Date Time Temperature
deg F
RH, % Wind Speed Wind Gust Wind Direction
05/19/22 06:00 25.5 98 30 54 W - 288
05/19/22 05:00 28.7 98 22 58 SW - 244
05/19/22 04:00 30.5 98 21 43 SW - 213
05/19/22 03:00 31.0 96 19 44 SW - 213
05/19/22 02:00 32.3 98 22 54 S - 202
05/19/22 01:00 32.1 97 17 43 SW - 213
05/19/22 00:00 32.1 91 14 35 SW - 213
05/18/22 23:00 34.8 81 19 38 SW - 208
05/18/22 22:00 34.8 85 21 47 S - 197
05/18/22 21:00 33.4 89 16 38 SW - 222
05/18/22 20:00 34.0 80 20 43 S - 201
05/18/22 19:00 35.4 71 24 47 S - 192
05/18/22 18:00 36.7 57 17 42 SW - 209
05/18/22 17:00 38.1 51 16 34 SW - 223
05/18/22 16:00 38.7 45 14 32 SW - 222
05/18/22 15:00 40.2 43 17 37 SW - 219
05/18/22 14:00 40.9 37 15 35 SW - 246
05/18/22 13:00 41.0 32 13 36 SW - 247
05/18/22 12:00 40.9 35 14 30 SW - 222
05/18/22 11:00 40.4 39 10 24 SW - 226
05/18/22 10:00 37.8 43 9 21 W - 248
05/18/22 09:00 36.7 53 8 18 SW - 247
05/18/22 08:00 35.0 57 8 16 W - 278
05/18/22 07:00 32.5 62 6 15 W - 248
05/18/22 06:00 30.7 65 6 15 SW - 225
05/18/22 05:00 30.4 63 4 9 W - 263
05/18/22 04:00 31.4 61 5 9 SW - 234
05/18/22 03:00 31.8 60 5 11 SW - 240
05/18/22 02:00 33.6 59 5 12 SW - 241
05/18/22 01:00 34.5 58 7 16 SW - 239
05/18/22 00:00 35.6 56 10 21 SW - 211
05/17/22 23:00 36.9 57 7 18 SW - 234
05/17/22 22:00 37.8 56 7 15 SW - 247
05/17/22 21:00 38.7 53 8 17 W - 253
05/17/22 20:00 39.5 51 9 24 SW - 236
05/17/22 19:00 40.6 42 11 23 W - 261
05/17/22 18:00 43.2 36 14 34 W - 271
05/17/22 17:00 43.8 38 15 31 W - 271
05/17/22 16:00 43.9 42 14 31 W - 279
05/17/22 15:00 44.2 40 11 30 W - 256
05/17/22 14:00 42.8 47 12 26 W - 264
05/17/22 13:00 40.5 61 12 28 W - 271
05/17/22 12:00 39.5 64 12 30 W - 274
05/17/22 11:00 39.6 73 9 17 SW - 229
05/17/22 10:00 38.4 83 5 14 SW - 223
05/17/22 09:00 39.8 86 4 10 SW - 229
05/17/22 08:00 36.4 86 3 5 SW - 236
05/17/22 07:00 36.7 88 3 5 S - 199
05/17/22 06:00 34.3 90 2 7 SW - 218
05/17/22 05:00 33.8 89 3 8 SW - 247